Time;durP1;ratioP1;P1;durP2;ratioP2;P2;SDS_P1;SDS_P2;PMS_P1;PMS_P2;Temp;Humidity;BMP_temperature;BMP_pressure;BME280_temperature;BME280_humidity;BME280_pressure;Samples;Min_cycle;Max_cycle;Signal;HPM_P1;HPM_P2
2022/07/12 00:02:53;;;;;;;2.17;2.07;;;21.20;34.40;;;;;;10437447;28;20705;-73
2022/07/12 00:07:57;;;;;;;1.60;1.50;;;21.20;35.00;;;;;;10437419;28;20229;-74
2022/07/12 00:13:01;;;;;;;1.57;1.47;;;21.10;34.60;;;;;;10443994;28;20225;-74
2022/07/12 00:18:05;;;;;;;1.60;1.50;;;21.00;34.50;;;;;;10436858;28;20248;-74
2022/07/12 00:23:09;;;;;;;2.70;2.23;;;20.90;34.90;;;;;;10435560;28;20271;-74
2022/07/12 00:28:12;;;;;;;2.40;2.30;;;20.80;34.70;;;;;;10437865;28;20239;-74
2022/07/12 00:33:17;;;;;;;2.00;1.90;;;20.70;35.00;;;;;;10438921;28;20240;-73
2022/07/12 00:38:20;;;;;;;1.83;1.73;;;20.60;35.50;;;;;;10436402;28;20233;-73
2022/07/12 00:43:23;;;;;;;1.93;1.83;;;20.50;35.30;;;;;;10437803;28;20225;-73
2022/07/12 00:48:28;;;;;;;1.90;1.70;;;20.40;35.70;;;;;;10429265;28;20580;-74
2022/07/12 00:53:31;;;;;;;1.90;1.80;;;20.30;36.10;;;;;;10433683;28;20229;-73
2022/07/12 00:58:35;;;;;;;1.80;1.70;;;20.30;35.80;;;;;;10427058;28;20255;-73
2022/07/12 01:03:40;;;;;;;1.50;1.40;;;20.20;35.80;;;;;;10438208;28;20307;-73
2022/07/12 01:08:43;;;;;;;1.47;1.37;;;20.20;36.70;;;;;;10434376;28;20232;-73
2022/07/12 01:13:47;;;;;;;1.37;1.27;;;20.10;35.90;;;;;;10436636;28;20216;-74
2022/07/12 01:18:53;;;;;;;1.10;1.10;;;20.00;35.70;;;;;;10433329;28;20229;-74
2022/07/12 01:23:58;;;;;;;1.30;1.20;;;20.00;36.00;;;;;;10434638;28;20217;-74
2022/07/12 01:29:01;;;;;;;1.03;1.03;;;20.00;36.30;;;;;;10431143;28;20221;-74
2022/07/12 01:34:06;;;;;;;1.70;1.60;;;19.90;35.50;;;;;;10437684;28;20820;-74
2022/07/12 01:39:11;;;;;;;1.80;1.70;;;19.80;36.10;;;;;;10430661;28;20641;-74
2022/07/12 01:44:14;;;;;;;2.00;1.80;;;19.80;36.40;;;;;;10428657;28;20232;-73
2022/07/12 01:49:17;;;;;;;2.00;1.90;;;19.70;36.20;;;;;;10436131;28;20235;-74
2022/07/12 01:54:22;;;;;;;1.67;1.57;;;19.60;36.20;;;;;;10425583;28;20233;-73
2022/07/12 01:59:26;;;;;;;1.70;1.40;;;19.50;36.10;;;;;;10434842;28;20240;-74
2022/07/12 02:04:29;;;;;;;1.30;1.20;;;19.50;36.10;;;;;;10433264;28;20234;-73
2022/07/12 02:09:34;;;;;;;1.60;1.50;;;19.50;36.10;;;;;;10425203;28;20240;-74
2022/07/12 02:14:37;;;;;;;1.40;1.30;;;19.40;36.00;;;;;;10431067;28;20243;-74
2022/07/12 02:19:40;;;;;;;2.17;1.50;;;19.40;36.00;;;;;;10434446;28;20236;-74
2022/07/12 02:24:45;;;;;;;1.30;1.20;;;19.40;36.00;;;;;;10431158;28;20220;-74
2022/07/12 02:29:48;;;;;;;2.40;1.57;;;19.30;35.90;;;;;;10432700;28;20228;-74
2022/07/12 02:34:51;;;;;;;1.70;1.60;;;19.30;35.90;;;;;;10425527;28;20225;-73
2022/07/12 02:40:53;;;;;;;1.77;1.67;;;19.20;35.80;;;;;;10430673;28;20225;-73
2022/07/12 02:45:19;;;;;;;1.77;1.67;;;19.10;36.20;;;;;;10433005;28;20593;-73
2022/07/12 02:50:23;;;;;;;1.87;1.77;;;19.00;36.00;;;;;;10431634;28;20256;-74
2022/07/12 02:55:27;;;;;;;1.67;1.50;;;18.90;36.30;;;;;;10427394;28;20882;-74
2022/07/12 03:00:31;;;;;;;1.83;1.70;;;18.80;36.80;;;;;;10431372;28;20228;-74
2022/07/12 03:05:35;;;;;;;1.60;1.53;;;18.80;36.70;;;;;;10430732;28;20690;-74
2022/07/12 03:10:40;;;;;;;1.93;1.83;;;18.70;36.30;;;;;;10424725;28;20238;-74
2022/07/12 03:15:45;;;;;;;3.07;1.97;;;18.60;37.00;;;;;;10436582;28;20222;-74
2022/07/12 03:20:49;;;;;;;2.10;2.00;;;18.50;36.60;;;;;;10428199;28;20233;-74
2022/07/12 03:25:54;;;;;;;2.33;2.13;;;18.50;36.60;;;;;;10430496;28;20236;-74
2022/07/12 03:30:58;;;;;;;2.00;1.87;;;18.50;36.80;;;;;;10426745;28;20228;-74
2022/07/12 03:36:01;;;;;;;1.97;1.87;;;18.40;36.60;;;;;;10444059;28;20225;-74
2022/07/12 03:41:06;;;;;;;2.00;1.90;;;18.30;36.70;;;;;;10446239;28;20221;-74
2022/07/12 03:46:09;;;;;;;2.10;2.00;;;18.30;37.10;;;;;;10443238;28;20229;-73
2022/07/12 03:51:12;;;;;;;2.07;1.97;;;18.20;36.90;;;;;;10438529;28;20279;-74
2022/07/12 03:57:13;;;;;;;1.77;1.60;;;18.20;36.90;;;;;;10428735;28;20237;-73
2022/07/12 04:01:40;;;;;;;3.20;2.13;;;18.20;37.40;;;;;;10433868;28;20225;-74
2022/07/12 04:06:43;;;;;;;2.30;2.10;;;18.20;37.20;;;;;;10435189;28;20225;-74
2022/07/12 04:11:48;;;;;;;2.73;2.07;;;18.10;37.10;;;;;;10432814;28;20225;-73
2022/07/12 04:16:52;;;;;;;2.60;1.93;;;18.10;37.80;;;;;;10440484;28;20221;-73
2022/07/12 04:21:55;;;;;;;1.93;1.83;;;18.20;37.50;;;;;;10427360;28;20228;-72
2022/07/12 04:27:00;;;;;;;4.43;2.10;;;18.20;37.50;;;;;;10441488;28;20225;-73
2022/07/12 04:32:03;;;;;;;4.20;2.60;;;18.20;38.10;;;;;;10439383;28;20235;-73
2022/07/12 04:37:06;;;;;;;3.10;2.57;;;18.30;37.80;;;;;;10436830;28;20232;-73
2022/07/12 04:42:11;;;;;;;2.30;2.13;;;18.30;38.00;;;;;;10430579;28;20229;-73
2022/07/12 04:47:14;;;;;;;2.63;2.43;;;18.30;38.10;;;;;;10436413;28;20237;-73
2022/07/12 04:52:17;;;;;;;2.53;2.33;;;18.30;37.90;;;;;;10437334;28;20224;-74
2022/07/12 04:57:22;;;;;;;2.77;2.57;;;18.30;38.10;;;;;;10431942;28;20236;-73
2022/07/12 05:02:26;;;;;;;2.60;2.40;;;18.30;38.80;;;;;;10429595;28;20228;-73
2022/07/12 05:07:30;;;;;;;2.60;2.40;;;18.20;38.60;;;;;;10432268;28;20232;-73
2022/07/12 05:12:35;;;;;;;2.97;2.70;;;18.30;38.60;;;;;;10432375;28;20235;-73
2022/07/12 05:17:38;;;;;;;2.60;2.40;;;18.30;39.20;;;;;;10437318;28;20217;-73
2022/07/12 05:22:42;;;;;;;2.37;2.27;;;18.30;38.80;;;;;;10437282;28;20226;-74
2022/07/12 05:27:46;;;;;;;2.27;1.93;;;18.30;39.50;;;;;;10439797;28;20225;-74
2022/07/12 05:32:50;;;;;;;1.80;1.70;;;18.40;40.10;;;;;;10433738;28;20229;-73
2022/07/12 05:37:53;;;;;;;1.53;1.43;;;18.50;39.60;;;;;;10437172;28;20225;-73
2022/07/12 05:42:58;;;;;;;1.40;1.40;;;18.60;39.60;;;;;;10432090;28;20229;-74
2022/07/12 05:48:02;;;;;;;2.03;1.60;;;18.80;40.20;;;;;;10437989;28;20312;-74
2022/07/12 05:53:23;;;;;;;1.80;1.70;;;18.90;39.80;;;;;;10424905;28;20228;-74
2022/07/12 05:58:27;;;;;;;1.60;1.50;;;19.00;39.50;;;;;;10436892;28;20225;-74
2022/07/12 06:03:30;;;;;;;1.50;1.40;;;19.20;39.90;;;;;;10432715;28;20225;-73
2022/07/12 06:08:34;;;;;;;1.27;1.23;;;19.30;39.50;;;;;;10425976;28;20228;-73
2022/07/12 06:13:38;;;;;;;1.20;1.20;;;19.40;39.50;;;;;;10430045;28;20231;-72
2022/07/12 06:18:42;;;;;;;1.97;1.20;;;19.60;39.70;;;;;;10425750;28;20235;-72
2022/07/12 06:23:45;;;;;;;1.10;1.10;;;19.70;39.40;;;;;;10425113;28;20221;-73
2022/07/12 06:28:49;;;;;;;1.30;1.20;;;19.90;39.30;;;;;;10433141;28;20736;-73
2022/07/12 06:33:53;;;;;;;1.10;1.10;;;20.10;39.40;;;;;;10432170;28;20239;-72
2022/07/12 06:38:56;;;;;;;1.00;1.00;;;20.30;39.70;;;;;;10436561;28;20225;-73
2022/07/12 06:44:01;;;;;;;1.20;1.20;;;20.40;39.00;;;;;;10430163;28;20229;-72
2022/07/12 06:49:04;;;;;;;2.10;1.17;;;20.60;38.90;;;;;;10419552;28;20225;-72
2022/07/12 06:54:07;;;;;;;1.40;1.30;;;20.80;38.80;;;;;;10433647;28;20229;-73
2022/07/12 06:59:11;;;;;;;1.13;1.03;;;21.00;38.80;;;;;;10432044;28;20221;-72
2022/07/12 07:04:18;;;;;;;1.20;1.10;;;21.10;38.70;;;;;;10438229;28;20597;-72
2022/07/12 07:09:21;;;;;;;1.40;1.30;;;21.30;38.30;;;;;;10434986;28;20229;-72
2022/07/12 07:14:25;;;;;;;1.23;1.00;;;21.50;38.20;;;;;;10440122;28;20225;-72
2022/07/12 07:19:29;;;;;;;1.40;1.20;;;21.70;38.00;;;;;;10436690;28;20233;-73
2022/07/12 07:24:32;;;;;;;1.47;1.27;;;21.80;37.90;;;;;;10431395;28;20228;-72
2022/07/12 07:34:57;;;;;;;1.30;1.20;;;22.00;37.30;;;;;;10440474;28;20316;-73
2022/07/12 07:40:00;;;;;;;1.50;1.07;;;22.10;37.30;;;;;;10441787;28;20229;-73
2022/07/12 07:45:07;;;;;;;1.40;1.23;;;22.30;37.10;;;;;;10438648;28;20593;-72
2022/07/12 07:50:20;;;;;;;1.20;1.10;;;22.40;36.80;;;;;;10431897;28;20225;-73
2022/07/12 07:55:24;;;;;;;0.90;0.90;;;22.50;37.00;;;;;;10437271;28;20240;-73
2022/07/12 08:00:28;;;;;;;1.00;1.00;;;22.70;36.80;;;;;;10436647;28;20609;-73
2022/07/12 08:05:32;;;;;;;2.30;1.30;;;22.90;35.60;;;;;;10439184;28;20221;-71
2022/07/12 08:10:35;;;;;;;1.77;1.13;;;23.00;35.70;;;;;;10438204;28;20224;-73
2022/07/12 08:15:40;;;;;;;1.30;1.30;;;23.10;35.90;;;;;;10436192;28;20231;-72
2022/07/12 08:20:43;;;;;;;1.40;1.30;;;23.30;35.20;;;;;;10435107;28;20237;-72
2022/07/12 08:25:49;;;;;;;1.30;1.10;;;23.30;34.50;;;;;;10432410;28;20228;-73
2022/07/12 08:30:54;;;;;;;1.20;1.03;;;23.40;34.50;;;;;;10435942;28;20222;-73
2022/07/12 08:35:57;;;;;;;1.30;1.30;;;23.50;33.90;;;;;;10439380;28;20225;-73
2022/07/12 08:41:01;;;;;;;1.20;1.20;;;23.50;34.00;;;;;;10433160;28;20232;-72
2022/07/12 08:46:07;;;;;;;2.13;1.23;;;23.70;34.30;;;;;;10436790;28;20304;-73
2022/07/12 08:51:11;;;;;;;1.37;1.30;;;23.90;33.40;;;;;;10432864;28;20233;-72
2022/07/12 08:56:32;;;;;;;1.10;1.10;;;24.10;32.90;;;;;;10435812;28;20245;-72
2022/07/12 09:01:45;;;;;;;2.47;1.30;;;24.20;31.70;;;;;;10438029;28;20311;-73
2022/07/12 09:06:49;;;;;;;1.53;1.20;;;24.40;30.50;;;;;;10430587;28;20270;-72
2022/07/12 09:11:53;;;;;;;1.33;1.10;;;24.60;32.40;;;;;;10435844;28;20221;-72
2022/07/12 09:17:02;;;;;;;0.80;0.80;;;24.70;32.50;;;;;;10435318;28;20696;-72
2022/07/12 09:22:16;;;;;;;1.17;1.00;;;25.00;30.50;;;;;;10426696;28;20345;-73
2022/07/12 09:27:26;;;;;;;1.13;1.10;;;25.20;30.40;;;;;;10434257;28;20286;-72
2022/07/12 09:37:53;;;;;;;0.90;0.90;;;25.30;29.80;;;;;;10431096;28;21073;-73
2022/07/12 09:42:57;;;;;;;1.37;1.00;;;25.40;30.50;;;;;;10431945;28;20305;-72
2022/07/12 09:48:02;;;;;;;1.50;1.30;;;25.50;30.20;;;;;;10436665;28;20217;-73
2022/07/12 09:53:09;;;;;;;1.13;1.10;;;25.60;29.50;;;;;;10434582;28;20231;-72
2022/07/12 09:58:14;;;;;;;1.07;1.07;;;25.70;29.90;;;;;;10429296;28;20229;-73
2022/07/12 10:03:22;;;;;;;1.53;1.10;;;25.70;29.20;;;;;;10428044;28;20780;-73
2022/07/12 10:08:26;;;;;;;1.13;1.00;;;25.50;28.90;;;;;;10428497;28;20245;-72
2022/07/12 10:13:30;;;;;;;1.00;1.00;;;25.50;29.30;;;;;;10432464;28;20655;-73
2022/07/12 10:18:34;;;;;;;1.03;1.03;;;25.60;29.30;;;;;;10422980;28;20330;-72
2022/07/12 10:23:38;;;;;;;1.00;1.00;;;25.80;29.10;;;;;;10423742;28;20228;-73
2022/07/12 10:29:00;;;;;;;2.33;0.93;;;25.90;29.20;;;;;;10423883;28;20850;-72
2022/07/12 10:34:13;;;;;;;1.10;1.10;;;26.10;28.50;;;;;;10434426;28;20221;-72
2022/07/12 10:39:16;;;;;;;1.20;1.10;;;26.40;27.80;;;;;;10431996;28;20603;-72
2022/07/12 10:44:35;;;;;;;1.20;1.10;;;26.50;28.60;;;;;;10439268;28;20291;-72
2022/07/12 10:49:47;;;;;;;0.90;0.90;;;26.50;27.60;;;;;;10439856;28;21011;-71
2022/07/12 10:55:20;;;;;;;1.10;1.10;;;26.60;27.40;;;;;;10439767;28;20241;-72
2022/07/12 11:00:23;;;;;;;1.17;1.10;;;26.70;26.70;;;;;;10434053;28;20239;-72
2022/07/12 11:05:28;;;;;;;0.87;0.87;;;26.80;27.80;;;;;;10436438;28;20229;-72
2022/07/12 11:10:31;;;;;;;0.90;0.90;;;27.00;26.70;;;;;;10441449;28;20225;-72
2022/07/12 11:15:35;;;;;;;0.93;0.93;;;27.10;27.40;;;;;;10439934;28;20270;-72
2022/07/12 11:20:39;;;;;;;2.30;1.40;;;27.20;26.70;;;;;;10438259;28;20709;-72
2022/07/12 11:25:43;;;;;;;1.63;1.10;;;27.10;26.50;;;;;;10431883;28;20272;-74
2022/07/12 11:30:50;;;;;;;1.00;1.00;;;27.20;26.90;;;;;;10441103;28;20220;-74
2022/07/12 11:35:56;;;;;;;1.10;1.00;;;27.30;25.90;;;;;;10426339;28;20217;-72
2022/07/12 11:41:00;;;;;;;0.87;0.87;;;27.40;25.00;;;;;;10433646;28;20233;-73
2022/07/12 11:46:05;;;;;;;1.10;1.00;;;27.50;25.80;;;;;;10433416;28;20667;-73
2022/07/12 11:51:13;;;;;;;0.90;0.90;;;27.50;26.00;;;;;;10439826;28;20314;-72
2022/07/12 11:56:16;;;;;;;1.00;1.00;;;27.50;25.20;;;;;;10432558;28;20225;-72
2022/07/12 12:01:19;;;;;;;0.93;0.93;;;27.60;26.10;;;;;;10431312;28;20228;-73
2022/07/12 12:06:24;;;;;;;1.03;1.00;;;27.60;25.20;;;;;;10429353;28;20229;-73
2022/07/12 12:11:29;;;;;;;1.80;1.00;;;27.70;24.40;;;;;;10428622;28;21347;-72
2022/07/12 12:16:34;;;;;;;0.93;0.93;;;27.70;24.60;;;;;;10424640;28;20220;-71
2022/07/12 12:21:39;;;;;;;1.00;1.00;;;27.80;24.50;;;;;;10426518;28;20690;-72
2022/07/12 12:26:42;;;;;;;1.37;0.80;;;27.80;23.90;;;;;;10424319;28;20224;-72
2022/07/12 12:31:57;;;;;;;0.80;0.80;;;27.90;24.50;;;;;;10414168;28;20233;-72
2022/07/12 12:37:06;;;;;;;1.80;0.90;;;28.00;23.10;;;;;;10435385;28;20217;-73
2022/07/12 12:42:14;;;;;;;1.00;1.00;;;28.00;22.50;;;;;;10426266;28;20253;-72
2022/07/12 12:47:34;;;;;;;0.90;0.90;;;28.10;22.80;;;;;;10423906;28;20244;-71
2022/07/12 12:52:49;;;;;;;0.90;0.90;;;28.10;23.40;;;;;;10419004;28;20323;-74
2022/07/12 12:57:53;;;;;;;0.93;0.90;;;28.20;22.50;;;;;;10413462;28;21164;-72
2022/07/12 13:02:58;;;;;;;1.43;0.90;;;28.20;23.70;;;;;;10427310;28;20225;-71
2022/07/12 13:08:04;;;;;;;0.80;0.80;;;28.20;23.40;;;;;;10431033;28;20216;-73
2022/07/12 13:13:12;;;;;;;0.80;0.80;;;28.30;22.70;;;;;;10429749;28;20786;-72
2022/07/12 13:18:21;;;;;;;0.70;0.70;;;28.40;22.00;;;;;;10432981;28;21204;-73
2022/07/12 13:23:25;;;;;;;0.90;0.90;;;28.40;22.20;;;;;;10435094;28;20259;-72
2022/07/12 13:28:30;;;;;;;0.80;0.80;;;28.30;21.90;;;;;;10431111;28;20240;-72
2022/07/12 13:33:34;;;;;;;0.90;0.90;;;28.40;22.10;;;;;;10435112;28;20221;-72
2022/07/12 13:38:39;;;;;;;0.90;0.90;;;28.40;21.60;;;;;;10433697;28;20233;-72
2022/07/12 13:43:42;;;;;;;1.00;1.00;;;28.40;21.50;;;;;;10431159;28;20233;-73
2022/07/12 13:48:45;;;;;;;0.90;0.90;;;28.40;22.00;;;;;;10429834;28;20229;-72
2022/07/12 13:53:50;;;;;;;1.27;0.80;;;28.40;21.50;;;;;;10430697;28;20640;-73
2022/07/12 13:58:53;;;;;;;0.80;0.80;;;28.40;21.40;;;;;;10437385;28;20229;-73
2022/07/12 14:03:56;;;;;;;0.90;0.90;;;28.40;21.70;;;;;;10432270;28;20964;-72
2022/07/12 14:09:01;;;;;;;0.80;0.80;;;28.50;21.60;;;;;;10431051;28;20229;-73
2022/07/12 14:14:04;;;;;;;1.00;1.00;;;28.70;21.10;;;;;;10433364;28;20236;-72
2022/07/12 14:19:07;;;;;;;0.70;0.70;;;28.80;21.50;;;;;;10433933;28;20229;-73
2022/07/12 14:24:12;;;;;;;0.87;0.87;;;28.90;21.30;;;;;;10433162;28;20229;-72
2022/07/12 14:29:15;;;;;;;1.00;1.00;;;28.90;20.60;;;;;;10429547;28;20237;-73
2022/07/12 14:34:18;;;;;;;0.80;0.80;;;29.10;21.20;;;;;;10432375;28;20224;-72
2022/07/12 14:39:23;;;;;;;0.80;0.80;;;29.20;20.70;;;;;;10434906;28;20693;-73
2022/07/12 14:44:26;;;;;;;0.80;0.80;;;29.20;20.60;;;;;;10430555;28;20817;-73
2022/07/12 14:49:30;;;;;;;0.70;0.70;;;29.20;20.70;;;;;;10436011;28;20264;-73
2022/07/12 14:54:34;;;;;;;1.67;0.80;;;29.20;20.70;;;;;;10429645;28;20231;-73
2022/07/12 14:59:38;;;;;;;0.80;0.80;;;29.20;20.00;;;;;;10434621;28;20601;-73
2022/07/12 15:04:41;;;;;;;0.80;0.80;;;29.20;20.50;;;;;;10431013;28;20233;-73
2022/07/12 15:09:46;;;;;;;0.80;0.80;;;29.30;20.30;;;;;;10432742;28;20225;-73
2022/07/12 15:14:49;;;;;;;0.70;0.70;;;29.30;19.40;;;;;;10429477;28;20221;-73
2022/07/12 15:19:59;;;;;;;0.70;0.70;;;29.30;19.90;;;;;;10427316;28;20300;-73
2022/07/12 15:25:05;;;;;;;0.80;0.80;;;29.30;20.00;;;;;;10430262;28;20961;-73
2022/07/12 15:30:08;;;;;;;0.70;0.70;;;29.30;19.00;;;;;;10434414;28;20235;-73
2022/07/12 15:35:12;;;;;;;0.80;0.80;;;29.30;19.20;;;;;;10440349;28;20225;-73
2022/07/12 15:40:17;;;;;;;0.80;0.80;;;29.30;19.70;;;;;;10436995;28;20236;-72
2022/07/12 15:45:20;;;;;;;0.70;0.70;;;29.40;18.60;;;;;;10439722;28;20232;-72
2022/07/12 15:50:24;;;;;;;1.20;0.80;;;29.40;19.10;;;;;;10428451;28;20241;-73
2022/07/12 15:55:29;;;;;;;0.80;0.80;;;29.40;18.80;;;;;;10439650;28;20744;-73
2022/07/12 16:00:32;;;;;;;0.80;0.80;;;29.40;18.70;;;;;;10439461;28;20232;-73
2022/07/12 16:05:36;;;;;;;0.80;0.80;;;29.50;19.10;;;;;;10436793;28;20231;-73
2022/07/12 16:10:41;;;;;;;0.90;0.90;;;29.60;18.70;;;;;;10439650;28;20638;-72
2022/07/12 16:15:44;;;;;;;0.70;0.70;;;29.70;17.70;;;;;;10431389;28;20423;-73
2022/07/12 16:20:48;;;;;;;0.90;0.90;;;29.70;18.40;;;;;;10439239;28;20268;-71
2022/07/12 16:25:52;;;;;;;0.90;0.90;;;29.70;18.20;;;;;;10434713;28;20218;-73
2022/07/12 16:31:04;;;;;;;0.70;0.70;;;29.80;17.30;;;;;;10440420;28;20785;-73
2022/07/12 16:36:08;;;;;;;0.83;0.83;;;29.80;17.90;;;;;;10433858;28;20221;-71
2022/07/12 16:41:12;;;;;;;0.80;0.80;;;29.80;17.70;;;;;;10433409;28;20235;-72
2022/07/12 16:46:16;;;;;;;0.70;0.70;;;29.90;17.60;;;;;;10434056;28;20241;-73
2022/07/12 16:51:22;;;;;;;0.90;0.90;;;30.00;17.70;;;;;;10436722;28;20228;-72
2022/07/12 16:56:29;;;;;;;0.90;0.90;;;30.10;17.50;;;;;;10430358;28;20842;-72
2022/07/12 17:01:32;;;;;;;0.80;0.80;;;30.20;16.40;;;;;;10437870;28;20709;-72
2022/07/12 17:06:36;;;;;;;0.80;0.80;;;30.10;17.10;;;;;;10442300;28;20267;-72
2022/07/12 17:11:40;;;;;;;0.83;0.70;;;30.10;17.20;;;;;;10436468;28;20225;-72
2022/07/12 17:16:44;;;;;;;0.87;0.87;;;30.10;17.00;;;;;;10430068;28;20233;-72
2022/07/12 17:21:48;;;;;;;0.90;0.90;;;30.10;17.30;;;;;;10435243;28;20258;-72
2022/07/12 17:26:52;;;;;;;0.73;0.73;;;30.10;17.20;;;;;;10433818;28;20812;-73
2022/07/12 17:31:56;;;;;;;0.67;0.67;;;30.20;16.90;;;;;;10435274;28;20308;-73
2022/07/12 17:36:59;;;;;;;0.90;0.90;;;30.20;17.10;;;;;;10436032;28;20217;-73
2022/07/12 17:42:04;;;;;;;0.80;0.80;;;30.20;17.00;;;;;;10434559;28;20233;-73
2022/07/12 17:47:07;;;;;;;0.80;0.80;;;30.30;16.80;;;;;;10434200;28;20221;-73
2022/07/12 17:52:10;;;;;;;0.80;0.80;;;30.30;17.00;;;;;;10434552;28;20236;-73
2022/07/12 17:57:15;;;;;;;1.23;0.90;;;30.30;17.00;;;;;;10438968;28;20693;-73
2022/07/12 18:02:18;;;;;;;0.90;0.90;;;30.40;17.00;;;;;;10434945;28;20233;-72
2022/07/12 18:07:21;;;;;;;2.63;0.90;;;30.30;16.80;;;;;;10433333;28;21363;-73
2022/07/12 18:18:01;;;;;;;1.07;0.90;;;30.30;16.60;;;;;;10415307;28;20229;-73
2022/07/12 18:23:05;;;;;;;0.80;0.80;;;30.30;16.60;;;;;;10433479;28;20312;-73
2022/07/12 18:28:11;;;;;;;0.80;0.80;;;30.20;16.60;;;;;;10430439;28;20231;-73
2022/07/12 18:33:14;;;;;;;0.80;0.80;;;30.10;16.80;;;;;;10439170;28;20221;-73
2022/07/12 18:38:17;;;;;;;0.80;0.80;;;29.90;16.90;;;;;;10431858;28;20221;-73
2022/07/12 18:43:22;;;;;;;0.70;0.70;;;29.80;16.80;;;;;;10431924;28;20232;-71
2022/07/12 18:48:27;;;;;;;0.80;0.80;;;29.60;16.80;;;;;;10431513;28;20233;-73
2022/07/12 18:53:30;;;;;;;0.83;0.83;;;29.40;17.20;;;;;;10426679;28;20231;-71
2022/07/12 18:58:35;;;;;;;0.90;0.90;;;29.30;17.60;;;;;;10426389;28;20309;-70
2022/07/12 19:03:38;;;;;;;0.80;0.80;;;29.20;17.80;;;;;;10437949;28;20235;-70
2022/07/12 19:08:42;;;;;;;0.90;0.90;;;29.00;18.10;;;;;;10440112;28;20224;-70
2022/07/12 19:13:46;;;;;;;1.50;1.00;;;28.90;18.30;;;;;;10441643;28;20228;-71
2022/07/12 19:18:50;;;;;;;0.97;0.97;;;28.70;18.60;;;;;;10435690;28;20233;-71
2022/07/12 19:23:53;;;;;;;0.90;0.90;;;28.60;18.70;;;;;;10434936;28;20228;-72
2022/07/12 19:28:57;;;;;;;0.70;0.70;;;28.40;18.80;;;;;;10441304;28;20225;-74
2022/07/12 19:34:01;;;;;;;0.90;0.90;;;28.30;19.10;;;;;;10444290;28;20223;-73
2022/07/12 19:39:04;;;;;;;0.87;0.87;;;28.10;19.00;;;;;;10438832;28;20229;-73
2022/07/12 19:44:09;;;;;;;1.43;0.93;;;27.90;20.00;;;;;;10442409;28;20731;-72
2022/07/12 19:49:12;;;;;;;0.90;0.90;;;27.70;19.60;;;;;;10434447;28;20243;-72
2022/07/12 19:54:15;;;;;;;1.00;1.00;;;27.50;19.80;;;;;;10440128;28;20225;-72
2022/07/12 19:59:20;;;;;;;0.80;0.80;;;27.40;19.80;;;;;;10436082;28;20239;-70
2022/07/12 20:04:24;;;;;;;0.80;0.80;;;27.20;19.70;;;;;;10438196;28;20232;-72
2022/07/12 20:09:28;;;;;;;0.90;0.80;;;27.10;19.80;;;;;;10433819;28;20232;-72
2022/07/12 20:14:32;;;;;;;1.00;1.00;;;26.90;20.20;;;;;;10437612;28;20221;-72
2022/07/12 20:19:36;;;;;;;1.10;1.10;;;26.80;20.60;;;;;;10436072;28;20960;-72
2022/07/12 20:24:40;;;;;;;2.20;1.00;;;26.60;20.60;;;;;;10432823;28;20592;-72
2022/07/12 20:29:44;;;;;;;0.90;0.90;;;26.40;20.70;;;;;;10437546;28;20225;-72
2022/07/12 20:34:48;;;;;;;1.60;1.20;;;26.20;21.10;;;;;;10434366;28;20221;-72
2022/07/12 20:39:51;;;;;;;0.83;0.83;;;26.00;21.20;;;;;;10432721;28;20233;-72
2022/07/12 20:44:55;;;;;;;1.73;0.90;;;25.80;21.50;;;;;;10432979;28;20229;-71
2022/07/12 20:49:58;;;;;;;0.97;0.93;;;25.60;22.00;;;;;;10436084;28;20248;-71
2022/07/12 20:55:02;;;;;;;1.10;1.10;;;25.50;22.50;;;;;;10429857;28;20716;-73
2022/07/12 21:00:09;;;;;;;1.30;1.20;;;25.40;22.10;;;;;;10431629;28;20233;-72
2022/07/12 21:05:12;;;;;;;1.50;1.40;;;25.20;22.90;;;;;;10432099;28;20263;-72
2022/07/12 21:10:16;;;;;;;1.47;1.23;;;24.90;22.40;;;;;;10428291;28;20256;-72
2022/07/12 21:15:20;;;;;;;2.07;1.20;;;24.70;22.60;;;;;;10432733;28;20244;-72
2022/07/12 21:20:24;;;;;;;1.73;1.27;;;24.50;23.30;;;;;;10431792;28;20232;-71
2022/07/12 21:25:27;;;;;;;1.37;1.27;;;24.30;23.00;;;;;;10437994;28;20224;-72
2022/07/12 21:30:32;;;;;;;1.10;1.10;;;23.90;22.90;;;;;;10433542;28;20229;-72
2022/07/12 21:35:35;;;;;;;1.13;1.13;;;23.70;23.80;;;;;;10428311;28;20228;-72
2022/07/12 21:40:38;;;;;;;1.30;1.20;;;23.50;23.60;;;;;;10435300;28;20700;-72
2022/07/12 21:45:43;;;;;;;1.10;1.10;;;23.10;23.70;;;;;;10427163;28;20253;-72
2022/07/12 21:50:46;;;;;;;1.30;1.20;;;22.80;24.40;;;;;;10432674;28;20232;-71
2022/07/12 21:55:50;;;;;;;1.20;1.10;;;22.60;24.40;;;;;;10435448;28;20229;-70
2022/07/12 22:00:55;;;;;;;1.83;1.50;;;22.60;24.80;;;;;;10423139;28;20229;-72
2022/07/12 22:05:59;;;;;;;1.23;1.10;;;22.50;25.30;;;;;;10431591;28;20224;-71
2022/07/12 22:11:02;;;;;;;1.30;1.20;;;22.30;24.80;;;;;;10435881;28;20944;-73
2022/07/12 22:16:07;;;;;;;1.20;1.10;;;22.10;25.00;;;;;;10428752;28;20236;-72
2022/07/12 22:21:11;;;;;;;1.93;1.20;;;21.80;25.60;;;;;;10432395;28;20235;-72
2022/07/12 22:26:14;;;;;;;1.10;1.10;;;21.70;25.60;;;;;;10434630;28;20315;-71
2022/07/12 22:31:18;;;;;;;1.00;1.00;;;21.60;25.60;;;;;;10436567;28;20258;-72
2022/07/12 22:36:22;;;;;;;1.40;1.30;;;21.50;26.30;;;;;;10432085;28;20645;-72
2022/07/12 22:41:25;;;;;;;3.43;1.07;;;21.40;26.30;;;;;;10431979;28;20233;-72
2022/07/12 22:46:29;;;;;;;1.20;1.10;;;21.40;26.30;;;;;;10431810;28;20228;-71
2022/07/12 22:51:52;;;;;;;1.00;1.00;;;21.40;26.30;;;;;;10433206;28;20225;-71
2022/07/12 22:56:56;;;;;;;1.20;1.10;;;21.30;26.10;;;;;;10433372;28;20279;-71
2022/07/12 23:02:00;;;;;;;2.83;1.17;;;21.20;26.10;;;;;;10435265;28;20727;-71
2022/07/12 23:07:03;;;;;;;2.13;1.13;;;21.10;26.20;;;;;;10434788;28;20685;-71
2022/07/12 23:12:07;;;;;;;2.80;1.20;;;21.00;26.20;;;;;;10431000;28;20226;-72
2022/07/12 23:17:11;;;;;;;1.10;1.00;;;21.00;26.30;;;;;;10426791;28;20213;-71
2022/07/12 23:22:15;;;;;;;1.47;1.00;;;20.90;26.60;;;;;;10434345;28;20316;-71
2022/07/12 23:27:18;;;;;;;1.80;1.13;;;20.70;26.40;;;;;;10435776;28;20319;-71
2022/07/12 23:32:23;;;;;;;1.90;1.30;;;20.70;26.60;;;;;;10431762;28;20236;-71
2022/07/12 23:37:26;;;;;;;1.03;1.03;;;20.70;27.20;;;;;;10429739;28;20225;-71
2022/07/12 23:42:31;;;;;;;2.00;1.10;;;20.60;26.80;;;;;;10432808;28;20244;-71
2022/07/12 23:47:35;;;;;;;2.63;1.07;;;20.60;26.90;;;;;;10433927;28;20749;-71
2022/07/12 23:52:38;;;;;;;1.00;0.90;;;20.70;27.40;;;;;;10438573;28;20227;-69
2022/07/12 23:57:42;;;;;;;1.00;1.00;;;20.60;26.80;;;;;;10439359;28;20231;-71
